• Join FlightAware (Why Join?)
  • Login
  • US Flag 
12:26PM EST


 

Airport Tracker/Info


-or-


 

Live Flight TrackerFlight Track Log ✈ N108JN ✈ 27-Feb-2012 ✈ KHDN - KVNY

Flight Track Log - Related Links

Times and Time Zones

All times are in EST time to prevent confusion due to time zone crossing. See the N108JN flight status page for this flight to view local times or setup timezone preferences in your user account.

Time Position Orientation Groundspeed Altitude Reporting Facility
EST Latitude Longitude Course Direction KTS MPH feet Rate Location/Type
10:55PM 40.4814 -107.2214 44° Northeast 421 484 6,600  Level Denver Center
10:57PM 40.4836 -107.2186 270° West 91 105 6,600  Level Denver Center
10:58PM 40.4836 -107.2214 180° South 48 55 6,600  Level Denver Center
10:59PM 40.4814 -107.2214 115° Southeast 6 7 6,600  Level Denver Center
11:00PM 40.4794 -107.2158 90° East 6 7 6,600  Level Denver Center
11:01PM 40.4794 -107.2106 107° East 12 14 6,600  Level Denver Center
11:02PM 40.4775 -107.2022 280° West 17 20 6,600 900 Level Denver Center
11:04PM 40.4914 -107.3089 238° Southwest 400 460 9,400 2,160 Climbing Denver Center
11:05PM 40.4531 -107.3903 237° Southwest 288 331 13,100 3,540 Climbing Denver Center
11:06PM 40.4128 -107.4714 235° Southwest 266 306 16,600 3,240 Climbing Denver Center
11:07PM 40.3747 -107.5419 235° Southwest 271 312 19,700 3,300 Climbing Denver Center
11:08PM 40.3281 -107.6283 235° Southwest 271 312 23,200 2,940 Climbing Denver Center
11:09PM 40.2853 -107.7092 235° Southwest 271 312 25,600 2,340 Climbing Denver Center
11:10PM 40.2386 -107.7953 234° Southwest 278 320 27,900 2,520 Climbing Denver Center
11:11PM 40.2003 -107.8653 235° Southwest 283 326 30,600 1,800 Climbing Denver Center
11:12PM 40.1511 -107.9567 234° Southwest 283 326 31,600 780 Climbing Denver Center
11:13PM 40.0997 -108.0506 235° Southwest 299 344 32,200 840 Climbing Denver Center
11:14PM 40.0464 -108.1497 233° Southwest 323 372 33,300 840 Climbing Denver Center
11:15PM 39.9947 -108.2406 234° Southwest 343 395 33,900 600 Climbing Denver Center
11:16PM 39.9347 -108.3500 236° Southwest 348 400 34,600 540 Climbing Denver Center
11:17PM 39.8892 -108.4367 234° Southwest 345 397 35,000 420 Climbing Salt Lake Center
11:18PM 39.8364 -108.5328 235° Southwest 343 395 35,500 540 Climbing Salt Lake Center
11:19PM 39.7753 -108.6456 232° Southwest 353 406 36,200 600 Climbing Denver Center
11:20PM 39.7083 -108.7567 236° Southwest 353 406 36,800 420 Climbing Denver Center
11:21PM 39.6606 -108.8469 235° Southwest 353 406 37,100 420 Climbing Denver Center
11:22PM 39.5978 -108.9633 235° Southwest 363 418 37,700 480 Climbing Denver Center
11:23PM 39.5433 -109.0636 234° Southwest 358 412 38,100 300 Climbing Denver Center
11:24PM 39.4847 -109.1664 235° Southwest 353 406 38,400 300 Climbing Denver Center
11:25PM 39.4344 -109.2586 234° Southwest 352 405 38,800 300 Climbing Denver Center
11:26PM 39.3711 -109.3714 234° Southwest 352 405 39,000 240 Climbing Denver Center
11:27PM 39.3122 -109.4764 233° Southwest 357 411 39,300 300 Climbing Denver Center
11:28PM 39.2481 -109.5881 234° Southwest 358 412 39,700 240 Climbing Salt Lake Center
11:29PM 39.1911 -109.6875 234° Southwest 359 413 39,900 120 Climbing Salt Lake Center
11:30PM 39.1253 -109.8042 234° Southwest 361 415 40,000  Climbing Salt Lake Center
11:31PM 39.0681 -109.9056 233° Southwest 364 419 40,000  Level Salt Lake Center
11:32PM 39.0089 -110.0081 234° Southwest 369 425 40,000  Level Salt Lake Center
11:33PM 38.9392 -110.1292 234° Southwest 374 430 40,000  Level Salt Lake Center
11:34PM 38.8794 -110.2342 233° Southwest 379 436 40,100  Climbing Salt Lake Center
11:35PM 38.8189 -110.3381 233° Southwest 379 436 40,000 -60 Descending Salt Lake Center
11:36PM 38.7478 -110.4589 233° Southwest 380 437 40,000  Level Salt Lake Center
11:37PM 38.6872 -110.5625 233° Southwest 380 437 40,000  Level Salt Lake Center
11:38PM 38.6172 -110.6819 233° Southwest 378 435 40,000  Level Salt Lake Center
11:39PM 38.5578 -110.7822 233° Southwest 372 428 40,000  Level Salt Lake Center
11:40PM 38.4981 -110.8836 233° Southwest 373 429 40,000  Level Salt Lake Center
11:41PM 38.4328 -110.9944 233° Southwest 376 433 40,000  Level Salt Lake Center
11:42PM 38.3694 -111.1019 233° Southwest 375 432 40,000  Level Salt Lake Center
11:43PM 38.3064 -111.2067 232° Southwest 370 426 40,000  Level Salt Lake Center
11:44PM 38.2425 -111.3125 233° Southwest 370 426 40,000  Level Salt Lake Center
11:45PM 38.1800 -111.4186 232° Southwest 370 426 40,000  Level Salt Lake Center
11:46PM 38.1161 -111.5239 232° Southwest 370 426 40,000  Level Salt Lake Center
11:47PM 38.0511 -111.6297 231° Southwest 373 429 40,000  Level Salt Lake Center
11:48PM 37.9842 -111.7344 232° Southwest 376 433 40,000  Level Salt Lake Center
11:49PM 37.9192 -111.8397 233° Southwest 374 430 40,000  Level Salt Lake Center
11:50PM 37.8558 -111.9464 232° Southwest 373 429 40,100  Climbing Salt Lake Center
11:51PM 37.7911 -112.0525 232° Southwest 374 430 40,100 -60 Level Salt Lake Center
11:52PM 37.7261 -112.1589 232° Southwest 375 432 40,000 -60 Descending Salt Lake Center
11:53PM 37.6611 -112.2636 232° Southwest 374 430 40,000  Level Salt Lake Center
11:54PM 37.5964 -112.3689 232° Southwest 373 429 40,000  Level Salt Lake Center
11:55PM 37.5319 -112.4736 233° Southwest 371 427 40,000  Level Salt Lake Center
11:56PM 37.4678 -112.5792 232° Southwest 371 427 40,000  Level Salt Lake Center
11:57PM 37.4025 -112.6839 232° Southwest 370 426 40,000  Level Salt Lake Center
11:58PM 37.3369 -112.7897 232° Southwest 372 428 40,000  Level Salt Lake Center
11:59PM 37.2708 -112.8956 232° Southwest 374 430 40,000  Level Salt Lake Center
12:00AM 37.2053 -113.0006 232° Southwest 375 432 40,000  Level Salt Lake Center
12:01AM 37.1392 -113.1053 232° Southwest 375 432 40,000  Level Salt Lake Center
12:02AM 37.1003 -113.1669 232° Southwest 382 440 40,000  Level Los Angeles Center
12:03AM 37.0358 -113.2708 231° Southwest 382 440 40,000  Level Los Angeles Center
12:04AM 36.9694 -113.3747 231° Southwest 382 440 40,100  Climbing Los Angeles Center
12:05AM 36.8969 -113.4861 232° Southwest 382 440 40,100 -60 Level Los Angeles Center
12:06AM 36.8322 -113.5894 231° Southwest 382 440 40,000 -60 Descending Los Angeles Center
12:07AM 36.7675 -113.6903 231° Southwest 382 440 40,000  Level Los Angeles Center
12:08AM 36.7028 -113.7906 233° Southwest 382 440 40,000  Level Los Angeles Center
12:09AM 36.6400 -113.8933 230° Southwest 382 440 40,000  Level Los Angeles Center
12:10AM 36.5731 -113.9933 230° Southwest 382 440 40,000  Level Los Angeles Center
12:11AM 36.5081 -114.0908 231° Southwest 382 440 40,000  Level Los Angeles Center
12:12AM 36.4408 -114.1931 231° Southwest 382 440 40,000  Level Los Angeles Center
12:13AM 36.3756 -114.2928 231° Southwest 382 440 40,000  Level Los Angeles Center
12:14AM 36.3083 -114.3947 231° Southwest 382 440 40,000  Level Los Angeles Center
12:15AM 36.2428 -114.4939 231° Southwest 382 440 40,000 -360 Level Los Angeles Center
12:16AM 36.1733 -114.5983 230° Southwest 387 445 39,300 -720 Descending Los Angeles Center
12:17AM 36.1036 -114.7025 230° Southwest 387 445 38,600 -1,080 Descending Los Angeles Center
12:18AM 36.0358 -114.8039 230° Southwest 387 445 37,200 -1,140 Descending Los Angeles Center
12:19AM 35.9661 -114.9075 226° Southwest 387 445 36,400 -1,020 Descending Los Angeles Center
12:20AM 35.8897 -115.0061 228° Southwest 387 445 35,200 -960 Descending Los Angeles Center
12:21AM 35.8156 -115.1069 228° Southwest 392 451 34,600 -600 Descending Los Angeles Center
12:22AM 35.7411 -115.2078 228° Southwest 397 457 34,100 -300 Descending Los Angeles Center
12:23AM 35.6750 -115.2981 228° Southwest 397 457 34,000 -60 Descending Los Angeles Center
12:24AM 35.6006 -115.3983 228° Southwest 397 457 34,000  Level Los Angeles Center
12:25AM 35.5261 -115.5011 225° Southwest 397 457 34,000  Level Los Angeles Center
12:26AM 35.4369 -115.6114 229° Southwest 405 466 34,000 -480 Level Los Angeles Center
12:27AM 35.3706 -115.7061 227° Southwest 405 466 33,100 -960 Descending Los Angeles Center
12:28AM 35.2914 -115.8083 227° Southwest 410 472 32,200 -900 Descending Los Angeles Center
12:29AM 35.2125 -115.9128 229° Southwest 410 472 31,300 -960 Descending Los Angeles Center
12:30AM 35.1353 -116.0197 226° Southwest 421 484 30,300 -1,200 Descending Los Angeles Center
12:31AM 35.0539 -116.1239 227° Southwest 421 484 28,900 -1,380 Descending Los Angeles Center
12:32AM 34.9725 -116.2303 227° Southwest 426 490 27,600 -1,560 Descending Los Angeles Center
12:33AM 34.8825 -116.3492 230° Southwest 426 490 25,800 -1,500 Descending Los Angeles Center
12:34AM 34.8072 -116.4603 274° West 426 490 24,700 -1,140 Descending Los Angeles Center
12:35AM 34.8150 -116.6094 265° West 399 459 23,600 -720 Descending Los Angeles Center
12:36AM 34.8039 -116.7536 255° West 418 481 23,300 -240 Descending Los Angeles Center
12:37AM 34.7739 -116.8900 253° West 431 496 23,200 -660 Descending Los Angeles Center
12:38AM 34.7419 -117.0161 263° West 431 496 22,000 -1,380 Descending Los Angeles Center
12:39AM 34.7261 -117.1625 262° West 431 496 20,500 -1,560 Descending Los Angeles Center
12:40AM 34.7100 -117.3089 263° West 437 503 19,000 -1,380 Descending Los Angeles Center
12:41AM 34.6961 -117.4503 260° West 432 497 17,800 -1,320 Descending Los Angeles Center
12:42AM 34.6758 -117.5861 261° West 422 486 16,400 -1,320 Descending Los Angeles Center
12:43AM 34.6572 -117.7325 259° West 416 479 15,300 -1,140 Descending Los Angeles Center
12:44AM 34.6367 -117.8556 261° West 403 464 14,200 -900 Descending Los Angeles Center
12:45AM 34.6228 -117.9614 259° West 360 414 13,500 -1,020 Descending Los Angeles Center
12:50AM 34.5500 -118.4167 239° Southwest 273 314 8,200 -900 Descending Southern California TRACON
12:51AM 34.5167 -118.4833 195° South 234 269 8,200 -600 Level Southern California TRACON
12:52AM 34.4667 -118.5000 192° South 214 246 7,100 -1,200 Descending Southern California TRACON
12:53AM 34.4000 -118.5167 165° South 213 245 5,900 -1,320 Descending Southern California TRACON
12:54AM 34.3500 -118.5000 180° South 202 232 4,700 -1,380 Descending Southern California TRACON
12:55AM 34.3000 -118.5000 180° South 176 203 3,200 -1,320 Descending Southern California TRACON
12:56AM 34.2667 -118.5000 165° South 140 161 2,000 -1,140 Descending Southern California TRACON
12:57AM 34.2167 -118.4833 165° South 131 151 1,000 -1,020 Descending Southern California TRACON